Time;durP1;ratioP1;P1;durP2;ratioP2;P2;SDS_P1;SDS_P2;PMS_P1;PMS_P2;Temp;Humidity;BMP_temperature;BMP_pressure;BME280_temperature;BME280_humidity;BME280_pressure;Samples;Min_cycle;Max_cycle;Signal;HPM_P1;HPM_P2
2021/07/09 00:02:43;;;;;;;22.50;10.73;;;;;;;18.74;67.07;100816.88;5077125;28;20089;-78
2021/07/09 00:05:09;;;;;;;19.83;9.73;;;;;;;18.64;67.31;100808.34;5095509;28;20032;-76
2021/07/09 00:07:35;;;;;;;18.00;9.88;;;;;;;18.60;67.40;100806.69;5092811;28;20107;-78
2021/07/09 00:10:00;;;;;;;21.38;10.88;;;;;;;18.62;67.38;100804.00;5092304;28;20083;-75
2021/07/09 00:12:26;;;;;;;20.65;10.80;;;;;;;18.62;67.53;100804.00;5093579;28;20038;-75
2021/07/09 00:14:52;;;;;;;21.55;11.82;;;;;;;18.65;67.59;100812.69;5104320;28;20091;-75
2021/07/09 00:17:18;;;;;;;18.55;10.25;;;;;;;18.43;67.54;100785.16;5075764;28;20414;-77
2021/07/09 00:19:44;;;;;;;21.83;10.90;;;;;;;18.59;67.84;100806.72;5075585;28;20069;-76
2021/07/09 00:22:10;;;;;;;19.15;9.77;;;;;;;18.62;67.81;100818.06;5094642;28;20048;-76
2021/07/09 00:24:36;;;;;;;20.70;10.23;;;;;;;18.62;67.93;100812.78;5106148;28;20037;-77
2021/07/09 00:27:03;;;;;;;19.50;10.32;;;;;;;18.60;67.95;100808.44;5098889;28;20482;-77
2021/07/09 00:29:30;;;;;;;17.90;9.55;;;;;;;18.49;68.01;100793.78;5095831;28;20072;-76
2021/07/09 00:31:56;;;;;;;18.52;10.02;;;;;;;18.59;67.79;100819.88;5093835;28;20051;-78
2021/07/09 00:34:22;;;;;;;18.67;9.80;;;;;;;18.49;67.94;100809.59;5095009;28;20119;-76
2021/07/09 00:36:48;;;;;;;20.23;9.18;;;;;;;18.49;67.91;100816.63;5093761;28;20046;-77
2021/07/09 00:39:15;;;;;;;18.63;9.85;;;;;;;18.45;67.96;100804.44;5094981;28;20040;-77
2021/07/09 00:41:41;;;;;;;25.55;9.93;;;;;;;18.49;68.22;100808.72;5091881;28;20363;-76
2021/07/09 00:44:07;;;;;;;15.80;9.80;;;;;;;18.38;68.43;100795.81;5075750;28;20072;-78
2021/07/09 00:46:37;;;;;;;17.05;10.35;;;;;;;18.40;68.15;100807.19;5093205;28;20043;-77
2021/07/09 00:49:05;;;;;;;21.00;11.27;;;;;;;18.42;68.31;100807.16;5058053;28;20036;-77
2021/07/09 00:51:31;;;;;;;17.27;10.07;;;;;;;18.44;68.51;100816.75;5091409;28;20075;-78
2021/07/09 00:53:58;;;;;;;15.98;10.27;;;;;;;18.27;68.33;100790.81;5091726;28;20075;-77
2021/07/09 00:56:24;;;;;;;18.40;9.27;;;;;;;18.30;68.27;100798.66;5091493;28;20043;-78
2021/07/09 00:58:51;;;;;;;21.40;9.98;;;;;;;18.41;68.54;100815.97;5093331;28;20036;-75
2021/07/09 01:01:18;;;;;;;19.08;9.93;;;;;;;18.22;68.39;100782.16;5091383;28;20038;-77
2021/07/09 01:03:45;;;;;;;20.20;10.88;;;;;;;18.26;68.29;100797.00;5091518;28;20040;-76
2021/07/09 01:06:12;;;;;;;21.30;10.82;;;;;;;18.37;68.37;100812.53;5074645;28;20039;-77
2021/07/09 01:08:39;;;;;;;19.90;9.50;;;;;;;18.29;68.23;100793.44;5091558;28;20055;-76
2021/07/09 01:11:05;;;;;;;19.48;9.45;;;;;;;18.28;68.28;100795.19;5089710;28;20047;-77
2021/07/09 01:13:31;;;;;;;25.20;10.10;;;;;;;18.28;67.96;100796.97;5091528;28;20052;-76
2021/07/09 01:15:56;;;;;;;24.02;10.40;;;;;;;18.30;68.60;100803.94;5093174;28;20039;-78
2021/07/09 01:18:22;;;;;;;17.58;10.10;;;;;;;18.36;68.59;100814.31;5093037;28;20392;-76
2021/07/09 01:20:48;;;;;;;23.75;10.82;;;;;;;18.31;68.59;100799.53;5101824;28;20732;-77
2021/07/09 01:23:18;;;;;;;18.73;9.77;;;;;;;18.29;68.60;100796.94;5075955;28;20044;-78
2021/07/09 01:25:44;;;;;;;19.17;9.80;;;;;;;18.26;68.42;100790.88;5091903;28;20043;-77
2021/07/09 01:28:10;;;;;;;26.08;10.57;;;;;;;18.23;68.68;100775.16;5091659;28;20040;-76
2021/07/09 01:30:37;;;;;;;14.55;9.30;;;;;;;18.37;68.63;100807.25;5074926;28;20036;-77
2021/07/09 01:33:04;;;;;;;18.10;10.27;;;;;;;18.38;68.99;100805.50;5092189;28;20126;-78
2021/07/09 01:35:31;;;;;;;17.85;9.30;;;;;;;18.42;68.84;100807.16;5093109;28;20051;-77
2021/07/09 01:38:00;;;;;;;19.33;10.68;;;;;;;18.44;68.92;100805.34;5057860;28;20234;-78
2021/07/09 01:40:26;;;;;;;17.73;9.88;;;;;;;18.46;68.79;100808.78;5091868;28;20089;-77
2021/07/09 01:42:52;;;;;;;18.52;9.90;;;;;;;18.50;68.82;100799.91;5074467;28;20067;-77
2021/07/09 01:45:19;;;;;;;17.30;10.48;;;;;;;18.51;69.05;100792.00;5091254;28;20134;-75
2021/07/09 01:47:45;;;;;;;20.13;10.90;;;;;;;18.51;68.76;100784.09;5091173;28;20040;-77
2021/07/09 01:50:11;;;;;;;18.48;10.43;;;;;;;18.62;68.62;100796.97;5091876;28;20046;-79
2021/07/09 01:52:37;;;;;;;18.58;10.60;;;;;;;18.54;68.24;100774.38;5090997;28;20036;-76
2021/07/09 01:55:06;;;;;;;22.73;9.93;;;;;;;18.66;68.67;100790.69;5091572;28;20048;-76
2021/07/09 01:57:32;;;;;;;29.30;11.23;;;;;;;18.74;68.54;100803.69;5093342;28;20105;-77
2021/07/09 01:59:59;;;;;;;18.25;9.88;;;;;;;18.78;68.57;100800.03;5074257;28;20044;-77
2021/07/09 02:02:25;;;;;;;19.42;9.90;;;;;;;18.81;68.54;100799.09;5074674;28;20077;-75
2021/07/09 02:04:55;;;;;;;16.83;9.77;;;;;;;18.75;68.34;100778.19;5093555;28;20048;-78
2021/07/09 02:07:22;;;;;;;18.90;9.93;;;;;;;18.93;68.49;100793.47;5096115;28;20044;-79
2021/07/09 02:09:52;;;;;;;18.33;9.52;;;;;;;18.96;68.43;100790.78;5094882;28;20059;-76
2021/07/09 02:12:20;;;;;;;19.98;9.82;;;;;;;19.08;68.06;100791.38;5110384;28;20068;-76
2021/07/09 02:14:48;;;;;;;16.90;9.82;;;;;;;19.13;67.96;100792.09;5078811;28;20040;-77
2021/07/09 02:17:16;;;;;;;22.27;10.00;;;;;;;19.27;67.75;100803.13;5096280;28;20040;-78
2021/07/09 02:19:43;;;;;;;18.02;10.18;;;;;;;19.32;67.84;100796.81;5078313;28;20044;-79
2021/07/09 02:22:12;;;;;;;16.92;9.90;;;;;;;19.41;67.80;100801.84;5095708;28;20028;-77
2021/07/09 02:24:40;;;;;;;15.18;9.90;;;;;;;19.46;67.53;100794.66;5096154;28;20161;-77
2021/07/09 02:27:06;;;;;;;18.55;10.05;;;;;;;19.60;67.86;100798.63;5099012;28;20063;-76
2021/07/09 02:29:33;;;;;;;26.33;9.77;;;;;;;19.57;67.45;100778.47;5101526;28;20043;-76
2021/07/09 02:32:02;;;;;;;17.77;10.35;;;;;;;19.68;67.05;100778.16;5078231;28;20043;-77
2021/07/09 02:34:29;;;;;;;23.40;10.95;;;;;;;19.85;67.01;100799.59;5095160;28;20160;-77
2021/07/09 02:36:56;;;;;;;22.27;11.00;;;;;;;19.90;66.78;100782.78;5096506;28;20047;-77
2021/07/09 02:39:25;;;;;;;22.92;10.02;;;;;;;20.01;66.86;100793.84;5078056;28;20047;-77
2021/07/09 02:41:53;;;;;;;18.13;9.48;;;;;;;20.14;66.81;100800.47;5095550;28;20509;-77
2021/07/09 02:44:20;;;;;;;17.05;9.88;;;;;;;20.21;66.83;100794.97;5095954;28;20043;-77
2021/07/09 02:46:46;;;;;;;17.10;9.70;;;;;;;20.31;66.48;100797.25;5096237;28;20070;-78
2021/07/09 02:49:11;;;;;;;22.52;10.70;;;;;;;20.41;66.52;100792.50;5096213;28;20044;-77
2021/07/09 02:51:38;;;;;;;19.50;10.65;;;;;;;20.53;66.64;100795.66;5094534;28;20407;-77
2021/07/09 02:54:04;;;;;;;18.20;10.30;;;;;;;20.53;66.54;100777.16;5094815;28;20050;-77
2021/07/09 02:56:30;;;;;;;19.77;10.25;;;;;;;20.69;66.23;100785.41;5077631;28;20092;-77
2021/07/09 02:58:58;;;;;;;23.88;9.60;;;;;;;20.77;66.46;100786.03;5095877;28;20477;-77
2021/07/09 03:01:26;;;;;;;17.58;9.52;;;;;;;20.83;66.28;100772.59;5095360;28;20526;-80
2021/07/09 03:03:53;;;;;;;20.77;10.27;;;;;;;21.10;66.35;100798.06;5085509;28;20131;-76
2021/07/09 03:06:20;;;;;;;15.40;9.32;;;;;;;21.23;65.97;100786.13;5097408;28;20040;-76
2021/07/09 03:08:46;;;;;;;17.52;9.25;;;;;;;21.36;65.91;100787.38;5098140;28;20412;-75
2021/07/09 03:11:12;;;;;;;17.85;10.23;;;;;;;21.42;65.85;100775.69;5096315;28;20040;-78
2021/07/09 03:13:39;;;;;;;25.42;10.23;;;;;;;21.63;65.62;100795.19;5103498;28;20050;-78
2021/07/09 03:16:05;;;;;;;19.77;9.55;;;;;;;21.76;65.66;100792.94;5106194;28;20089;-75
2021/07/09 03:18:31;;;;;;;19.20;8.85;;;;;;;21.89;65.50;100785.34;5103366;28;20040;-76
2021/07/09 03:20:57;;;;;;;28.88;11.15;;;;;;;22.04;65.38;100790.94;5098851;28;20048;-76
2021/07/09 03:23:22;;;;;;;24.95;10.63;;;;;;;22.13;64.48;100779.97;5082005;28;20040;-76
2021/07/09 03:25:49;;;;;;;21.77;9.50;;;;;;;22.30;64.72;100792.50;5098572;28;20047;-76
2021/07/09 03:28:15;;;;;;;14.68;9.25;;;;;;;22.52;63.83;100791.59;5096844;28;20047;-76
2021/07/09 03:30:42;;;;;;;17.95;9.35;;;;;;;22.70;64.09;100789.97;5094736;28;20044;-76
2021/07/09 03:33:08;;;;;;;14.30;9.52;;;;;;;22.83;63.27;100783.19;5101229;28;20036;-77
2021/07/09 03:35:34;;;;;;;19.38;9.38;;;;;;;22.98;63.26;100789.56;5100461;28;20625;-77
2021/07/09 03:38:00;;;;;;;18.13;9.15;;;;;;;23.19;62.99;100784.22;5077896;28;20075;-79
2021/07/09 03:40:26;;;;;;;19.75;9.43;;;;;;;23.39;62.78;100790.44;5077403;28;20127;-76
2021/07/09 03:42:52;;;;;;;18.02;9.73;;;;;;;23.56;62.12;100777.22;5094068;28;20106;-80
2021/07/09 03:45:19;;;;;;;13.32;9.10;;;;;;;23.84;62.32;100788.31;5093754;28;20036;-77
2021/07/09 03:47:45;;;;;;;16.40;8.70;;;;;;;23.99;61.68;100779.59;5095653;28;20130;-77
2021/07/09 03:50:12;;;;;;;16.13;8.40;;;;;;;24.10;61.38;100768.44;5095105;28;20098;-79
2021/07/09 03:52:38;;;;;;;19.05;8.90;;;;;;;24.36;60.73;100783.06;5095222;28;20138;-77
2021/07/09 03:55:06;;;;;;;18.30;8.75;;;;;;;24.42;60.60;100760.63;5093817;28;20152;-80
2021/07/09 03:57:32;;;;;;;14.75;8.07;;;;;;;24.75;60.22;100781.09;5076938;28;20040;-79
2021/07/09 03:59:58;;;;;;;14.20;7.65;;;;;;;24.92;59.08;100771.38;5095676;28;20131;-79
2021/07/09 04:02:24;;;;;;;13.25;7.22;;;;;;;25.05;58.01;100758.22;5078298;28;20070;-80
2021/07/09 04:04:50;;;;;;;13.73;6.50;;;;;;;25.35;56.39;100770.78;5077349;28;20476;-79
2021/07/09 04:07:15;;;;;;;13.48;6.80;;;;;;;25.51;55.72;100769.00;5095714;28;20039;-77
2021/07/09 04:09:41;;;;;;;11.02;6.75;;;;;;;25.65;54.54;100762.06;5094868;28;20452;-75
2021/07/09 04:12:07;;;;;;;14.35;6.80;;;;;;;25.84;54.15;100762.72;5093333;28;20104;-78
2021/07/09 04:14:35;;;;;;;11.25;6.10;;;;;;;26.05;52.83;100759.75;5094867;28;20056;-77
2021/07/09 04:17:01;;;;;;;9.10;6.22;;;;;;;26.18;52.52;100754.56;5075568;28;20047;-76
2021/07/09 04:19:28;;;;;;;8.40;5.50;;;;;;;26.42;51.84;100762.91;5092810;28;20071;-76
2021/07/09 04:21:55;;;;;;;11.10;5.70;;;;;;;26.59;51.40;100758.38;5091173;28;20039;-76
2021/07/09 04:24:21;;;;;;;9.77;5.95;;;;;;;26.72;50.64;100761.13;5091377;28;20422;-75
2021/07/09 04:26:46;;;;;;;10.32;6.25;;;;;;;26.91;50.61;100760.88;5074218;28;20036;-78
2021/07/09 04:29:12;;;;;;;15.43;6.30;;;;;;;27.11;49.57;100753.41;5090987;28;20051;-77
2021/07/09 04:31:38;;;;;;;11.55;5.65;;;;;;;27.34;48.84;100749.28;5074596;28;20523;-77
2021/07/09 04:34:04;;;;;;;8.45;5.80;;;;;;;27.42;48.72;100740.75;5091411;28;20048;-76
2021/07/09 04:36:30;;;;;;;13.80;5.72;;;;;;;27.51;48.34;100729.50;5092902;28;20035;-78
2021/07/09 04:38:56;;;;;;;14.32;6.00;;;;;;;27.86;47.62;100744.16;5093032;28;20040;-77
2021/07/09 04:41:22;;;;;;;7.78;5.63;;;;;;;27.89;47.62;100722.56;5102942;28;20032;-76
2021/07/09 04:43:48;;;;;;;8.13;5.60;;;;;;;28.14;47.33;100736.97;5095642;28;20096;-78
2021/07/09 04:46:13;;;;;;;10.35;5.57;;;;;;;28.33;47.14;100733.91;5094627;28;20384;-78
2021/07/09 04:48:40;;;;;;;10.02;5.30;;;;;;;28.45;46.48;100719.66;5092785;28;20074;-79
2021/07/09 04:51:05;;;;;;;11.40;6.03;;;;;;;28.67;45.82;100734.19;5090639;28;20136;-79
2021/07/09 04:53:32;;;;;;;10.68;5.68;;;;;;;28.78;45.49;100730.78;5090865;28;20122;-79
2021/07/09 04:55:57;;;;;;;9.48;5.88;;;;;;;28.76;45.22;100709.50;5090610;28;20109;-77
2021/07/09 04:58:23;;;;;;;9.43;5.43;;;;;;;28.91;44.81;100709.34;5092410;28;20040;-80
2021/07/09 05:00:49;;;;;;;10.35;5.38;;;;;;;29.13;44.49;100716.69;5092385;28;20380;-79
2021/07/09 05:03:15;;;;;;;9.65;5.22;;;;;;;29.30;43.80;100727.03;5074631;28;20056;-79
2021/07/09 05:05:41;;;;;;;8.43;5.35;;;;;;;29.39;43.65;100720.16;5093200;28;20084;-79
2021/07/09 05:08:08;;;;;;;12.48;5.30;;;;;;;29.53;43.56;100720.94;5092615;28;20515;-78
2021/07/09 05:10:35;;;;;;;8.40;5.72;;;;;;;29.53;42.64;100712.91;5090536;28;20036;-79
2021/07/09 05:13:06;;;;;;;12.15;5.28;;;;;;;29.56;42.27;100694.78;5092572;28;20040;-78
2021/07/09 05:15:33;;;;;;;7.30;5.50;;;;;;;29.84;41.63;100724.84;5074067;28;20083;-79
2021/07/09 05:17:59;;;;;;;11.25;5.15;;;;;;;29.98;41.23;100728.38;5091024;28;20047;-78
2021/07/09 05:20:25;;;;;;;8.93;4.85;;;;;;;30.04;40.63;100709.97;5091264;28;20040;-78
2021/07/09 05:22:51;;;;;;;7.20;4.47;;;;;;;30.05;40.26;100700.06;5090912;28;20545;-77
2021/07/09 05:25:17;;;;;;;8.52;5.22;;;;;;;30.25;39.92;100717.31;5091638;28;20078;-78
2021/07/09 05:27:43;;;;;;;7.78;5.03;;;;;;;30.41;39.71;100716.97;5092515;28;20089;-80
2021/07/09 05:30:10;;;;;;;8.43;5.00;;;;;;;30.46;39.51;100717.44;5092322;28;20093;-78
2021/07/09 05:32:39;;;;;;;9.10;5.30;;;;;;;30.64;39.11;100717.03;5074361;28;20132;-78
2021/07/09 05:35:06;;;;;;;6.75;5.10;;;;;;;30.64;38.38;100696.38;5090818;28;20100;-77
2021/07/09 05:37:32;;;;;;;8.93;5.18;;;;;;;30.76;38.01;100696.41;5091742;28;20051;-79
2021/07/09 05:39:58;;;;;;;9.88;4.70;;;;;;;31.07;38.07;100715.38;5093003;28;20043;-77
2021/07/09 05:42:27;;;;;;;6.90;4.65;;;;;;;30.76;37.20;100646.22;5078401;28;20038;-78
2021/07/09 05:44:53;;;;;;;6.57;4.45;;;;;;;31.25;37.04;100719.28;5061451;28;20134;-77
2021/07/09 05:47:19;;;;;;;9.43;4.68;;;;;;;31.27;36.58;100686.03;5096979;28;20058;-77
2021/07/09 05:49:45;;;;;;;10.55;4.35;;;;;;;31.52;36.43;100709.91;5096723;28;20048;-79
2021/07/09 05:52:11;;;;;;;8.68;4.72;;;;;;;31.91;35.55;100703.16;5096202;28;20495;-79
2021/07/09 05:54:37;;;;;;;8.98;5.20;;;;;;;32.72;35.23;100697.97;5094523;28;20552;-79
2021/07/09 05:57:04;;;;;;;5.05;4.35;;;;;;;34.29;33.54;100661.25;5077323;28;20522;-79
2021/07/09 05:59:30;;;;;;;7.38;5.38;;;;;;;36.57;31.00;100690.78;5094750;28;20540;-77
2021/07/09 06:01:57;;;;;;;8.98;5.95;;;;;;;38.55;28.64;100692.78;5060660;28;20130;-78
2021/07/09 06:04:22;;;;;;;7.75;4.55;;;;;;;40.23;26.44;100686.00;5078000;28;20123;-80
2021/07/09 06:06:48;;;;;;;6.93;4.68;;;;;;;41.54;24.17;100690.69;5095403;28;20043;-79
2021/07/09 06:09:14;;;;;;;8.23;4.30;;;;;;;42.67;23.29;100692.47;5093431;28;20053;-80
2021/07/09 06:11:40;;;;;;;14.30;4.45;;;;;;;43.82;21.49;100688.03;5095371;28;20071;-79
2021/07/09 06:14:06;;;;;;;6.15;3.92;;;;;;;44.91;19.96;100690.22;5077311;28;20040;-78
2021/07/09 06:16:32;;;;;;;4.32;3.92;;;;;;;45.86;18.57;100688.47;5093628;28;20046;-78
2021/07/09 06:18:58;;;;;;;6.78;3.92;;;;;;;46.67;18.07;100684.81;5094023;28;20032;-79
2021/07/09 06:21:24;;;;;;;9.23;4.05;;;;;;;47.70;17.06;100691.31;5094627;28;20032;-79
2021/07/09 06:23:54;;;;;;;4.30;3.53;;;;;;;48.42;15.69;100698.44;5094087;28;20078;-79
2021/07/09 06:26:21;;;;;;;5.45;3.95;;;;;;;49.02;14.86;100692.63;5094495;28;20047;-76
2021/07/09 06:28:47;;;;;;;4.88;3.63;;;;;;;49.32;14.45;100686.00;5095111;28;20044;-78
2021/07/09 06:31:13;;;;;;;5.07;4.20;;;;;;;49.86;14.14;100671.63;5094692;28;20040;-78
2021/07/09 06:33:40;;;;;;;7.88;3.85;;;;;;;49.99;13.21;100682.31;5092919;28;20048;-77
2021/07/09 06:36:06;;;;;;;4.28;3.88;;;;;;;50.09;12.92;100672.47;5093218;28;20127;-76
2021/07/09 06:38:32;;;;;;;7.55;3.70;;;;;;;50.63;12.38;100680.91;5093079;28;20040;-79
2021/07/09 06:40:58;;;;;;;5.38;3.67;;;;;;;51.62;12.08;100681.75;5076542;28;20042;-78
2021/07/09 06:43:24;;;;;;;4.38;3.97;;;;;;;52.12;11.46;100674.81;5094494;28;20423;-78
2021/07/09 06:45:50;;;;;;;4.75;4.15;;;;;;;52.54;10.49;100678.53;5094914;28;20044;-81
2021/07/09 06:48:16;;;;;;;5.35;3.80;;;;;;;53.03;10.44;100678.38;5076988;28;20043;-78
2021/07/09 06:50:42;;;;;;;4.05;3.65;;;;;;;53.16;10.00;100666.69;5093344;28;20051;-79
2021/07/09 06:53:08;;;;;;;7.68;4.50;;;;;;;53.44;9.14;100665.28;5093884;28;20036;-78
2021/07/09 06:55:34;;;;;;;6.28;4.43;;;;;;;53.85;8.65;100675.47;5097424;28;20591;-79
2021/07/09 06:58:00;;;;;;;5.80;3.97;;;;;;;54.22;8.89;100670.59;5059713;28;20047;-79
2021/07/09 07:00:26;;;;;;;4.13;3.78;;;;;;;54.13;9.21;100664.81;5075947;28;20454;-78
2021/07/09 07:02:53;;;;;;;6.20;4.90;;;;;;;54.25;8.72;100667.25;5076126;28;20040;-79
2021/07/09 07:05:22;;;;;;;6.43;4.57;;;;;;;54.30;8.37;100656.09;5093224;28;20044;-78
2021/07/09 07:07:48;;;;;;;4.80;4.32;;;;;;;54.57;8.34;100670.69;5077450;28;20050;-80
2021/07/09 07:10:15;;;;;;;4.47;3.95;;;;;;;55.04;8.37;100668.38;5102481;28;20036;-77
2021/07/09 07:12:45;;;;;;;5.65;4.70;;;;;;;55.23;8.11;100660.13;5095188;28;20487;-77
2021/07/09 07:15:11;;;;;;;5.03;4.45;;;;;;;55.60;7.40;100661.44;5098332;28;20314;-79
2021/07/09 07:17:37;;;;;;;7.45;4.43;;;;;;;55.74;7.59;100667.13;5102208;28;20032;-78
2021/07/09 07:20:05;;;;;;;7.03;4.18;;;;;;;55.84;7.54;100668.94;5078959;28;20046;-78
2021/07/09 07:22:31;;;;;;;5.25;4.70;;;;;;;55.81;7.02;100655.59;5095745;28;20113;-79
2021/07/09 07:24:56;;;;;;;6.95;4.80;;;;;;;55.94;7.28;100651.28;5094665;28;20499;-78
2021/07/09 07:27:29;;;;;;;7.50;4.65;;;;;;;55.79;7.31;100661.50;5093728;28;20146;-81
2021/07/09 07:29:58;;;;;;;7.10;5.05;;;;;;;55.18;7.41;100652.63;5095354;28;20047;-78
2021/07/09 07:32:26;;;;;;;5.78;5.00;;;;;;;54.57;7.96;100659.53;5061735;28;20503;-77
2021/07/09 07:34:53;;;;;;;8.20;5.00;;;;;;;55.17;7.65;100661.31;5096294;28;20130;-79
2021/07/09 07:37:19;;;;;;;8.60;5.55;;;;;;;55.84;6.99;100663.38;5093929;28;20040;-79
2021/07/09 07:39:45;;;;;;;9.63;5.30;;;;;;;56.35;7.23;100658.25;5094054;28;20380;-78
2021/07/09 07:42:11;;;;;;;7.78;5.10;;;;;;;56.49;6.60;100661.94;5096564;28;20043;-80
2021/07/09 07:44:37;;;;;;;7.88;5.20;;;;;;;56.61;6.52;100655.91;5096074;28;20035;-77
2021/07/09 07:47:03;;;;;;;6.25;4.95;;;;;;;56.62;7.00;100663.16;5080216;28;20040;-80
2021/07/09 07:49:29;;;;;;;5.85;4.70;;;;;;;56.71;6.04;100646.53;5104358;28;20082;-77
2021/07/09 07:51:55;;;;;;;7.88;4.50;;;;;;;56.82;6.36;100659.19;5091116;28;20044;-79
2021/07/09 07:54:21;;;;;;;7.03;5.55;;;;;;;56.78;6.59;100658.16;5091306;28;20071;-78
2021/07/09 07:56:47;;;;;;;6.30;5.05;;;;;;;56.82;6.56;100658.34;5090977;28;20122;-80
2021/07/09 07:59:13;;;;;;;5.65;4.85;;;;;;;56.87;6.38;100652.72;5075487;28;20075;-80
2021/07/09 08:01:40;;;;;;;5.85;4.85;;;;;;;57.04;6.51;100649.34;5091266;28;20050;-77
2021/07/09 08:04:06;;;;;;;6.60;5.20;;;;;;;57.24;6.46;100638.94;5093134;28;20040;-77
2021/07/09 08:06:32;;;;;;;12.82;5.45;;;;;;;57.29;6.71;100634.06;5092646;28;20036;-80
2021/07/09 08:08:59;;;;;;;5.60;5.10;;;;;;;57.31;6.53;100625.34;5095567;28;20056;-81
2021/07/09 08:11:25;;;;;;;6.13;5.43;;;;;;;56.94;6.48;100646.72;5086680;28;20039;-81
2021/07/09 08:13:51;;;;;;;6.82;5.20;;;;;;;57.28;6.01;100637.16;5095812;28;20070;-79
2021/07/09 08:16:17;;;;;;;7.95;5.10;;;;;;;57.82;6.17;100628.28;5077891;28;20050;-79
2021/07/09 08:18:43;;;;;;;5.70;5.20;;;;;;;57.88;5.73;100636.22;5078842;28;20039;-77
2021/07/09 08:21:09;;;;;;;5.85;5.28;;;;;;;57.49;5.46;100614.44;5095410;28;20044;-79
2021/07/09 08:23:35;;;;;;;7.70;5.82;;;;;;;57.12;6.33;100625.44;5094814;28;20038;-78
2021/07/09 08:26:01;;;;;;;5.80;5.30;;;;;;;57.07;5.81;100631.94;5096358;28;20123;-78
2021/07/09 08:28:28;;;;;;;7.63;5.38;;;;;;;57.00;5.72;100620.34;5095237;28;20062;-80
2021/07/09 08:30:54;;;;;;;7.00;5.20;;;;;;;56.78;6.23;100624.63;5061759;28;20046;-77
2021/07/09 08:33:20;;;;;;;6.50;5.32;;;;;;;57.70;5.39;100620.38;5094111;28;20396;-80
2021/07/09 08:35:47;;;;;;;7.15;5.75;;;;;;;58.17;6.06;100611.81;5076206;28;20085;-79
2021/07/09 08:38:13;;;;;;;8.77;5.80;;;;;;;58.30;5.25;100610.94;5094099;28;20476;-78
2021/07/09 08:40:39;;;;;;;6.07;5.45;;;;;;;58.45;5.86;100604.16;5093429;28;20063;-79
2021/07/09 08:43:05;;;;;;;9.00;5.65;;;;;;;58.37;5.96;100604.06;5092808;28;20044;-80
2021/07/09 08:45:31;;;;;;;6.95;6.30;;;;;;;58.19;5.15;100598.31;5092770;28;20134;-77
2021/07/09 08:47:57;;;;;;;10.63;5.85;;;;;;;57.99;5.99;100592.06;5060167;28;20040;-79
2021/07/09 08:50:23;;;;;;;7.20;6.38;;;;;;;57.93;6.06;100589.69;5075449;28;20525;-77
2021/07/09 08:52:52;;;;;;;9.48;6.72;;;;;;;57.31;5.73;100595.44;5091724;28;20128;-77
2021/07/09 08:55:19;;;;;;;10.45;5.82;;;;;;;57.48;5.27;100593.97;5093927;28;20035;-79
2021/07/09 08:57:47;;;;;;;15.40;6.10;;;;;;;56.93;5.69;100576.06;5077088;28;20415;-78
2021/07/09 09:00:21;;;;;;;7.20;6.20;;;;;;;56.38;6.39;100587.88;5092174;28;20032;-80
2021/07/09 09:02:48;;;;;;;9.25;5.57;;;;;;;56.21;6.61;100585.59;5093486;28;20127;-79
2021/07/09 09:05:22;;;;;;;8.20;6.00;;;;;;;56.57;6.30;100585.91;5075269;28;20089;-80
2021/07/09 09:08:03;;;;;;;10.48;6.07;;;;;;;56.99;6.42;100579.59;5094048;28;20511;-77
2021/07/09 09:10:36;;;;;;;7.43;5.88;;;;;;;56.72;6.13;100595.13;5092126;28;20059;-80
2021/07/09 09:13:08;;;;;;;6.28;5.75;;;;;;;56.46;6.45;100586.34;5093827;28;20070;-80
2021/07/09 09:15:35;;;;;;;8.98;6.10;;;;;;;56.40;6.49;100575.25;5099399;28;20052;-79
2021/07/09 09:18:22;;;;;;;10.48;6.22;;;;;;;56.65;5.70;100575.13;5099691;28;20070;-78
2021/07/09 09:21:01;;;;;;;9.57;6.68;;;;;;;57.05;5.77;100569.13;5100633;28;20044;-79
2021/07/09 09:23:28;;;;;;;10.13;8.82;;;;;;;57.25;5.91;100573.50;5099995;28;20071;-77
2021/07/09 09:25:54;;;;;;;8.02;6.20;;;;;;;57.39;5.89;100574.31;5101196;28;20452;-80
2021/07/09 09:28:20;;;;;;;8.88;6.30;;;;;;;56.09;6.81;100574.91;5101331;28;20134;-79
2021/07/09 09:30:51;;;;;;;6.93;6.10;;;;;;;54.32;7.11;100558.41;5100290;28;20039;-79
2021/07/09 09:33:18;;;;;;;9.80;8.80;;;;;;;53.40;7.94;100546.63;5098968;28;20040;-80
2021/07/09 09:35:52;;;;;;;6.70;5.95;;;;;;;53.12;8.40;100552.53;5099996;28;20043;-78
2021/07/09 09:38:23;;;;;;;8.30;6.03;;;;;;;53.26;8.26;100552.78;5099727;28;20040;-78
2021/07/09 09:40:50;;;;;;;9.00;6.35;;;;;;;52.95;7.97;100552.84;5098629;28;20613;-80
2021/07/09 09:43:19;;;;;;;6.90;5.90;;;;;;;53.31;8.25;100546.38;5100320;28;20032;-78
2021/07/09 09:46:05;;;;;;;9.15;6.20;;;;;;;54.14;8.08;100543.22;5099451;28;20392;-78
2021/07/09 09:48:49;;;;;;;11.85;6.90;;;;;;;54.16;7.56;100532.63;5099839;28;20101;-79
2021/07/09 09:51:41;;;;;;;9.13;7.13;;;;;;;53.69;7.80;100534.84;5099082;28;20042;-79
2021/07/09 09:54:10;;;;;;;8.07;7.30;;;;;;;53.77;7.79;100530.63;5098467;28;20058;-78
2021/07/09 09:56:40;;;;;;;11.50;7.00;;;;;;;53.91;7.99;100534.44;5100521;28;20036;-79
2021/07/09 09:59:15;;;;;;;8.20;6.82;;;;;;;53.93;7.61;100531.38;5100586;28;20130;-78
2021/07/09 10:02:06;;;;;;;11.43;6.35;;;;;;;54.39;7.87;100530.25;5100137;28;20058;-78
2021/07/09 10:04:33;;;;;;;7.90;7.10;;;;;;;54.55;7.75;100530.94;5099963;28;20044;-77
2021/07/09 10:07:00;;;;;;;8.65;6.22;;;;;;;54.39;7.40;100503.25;5100768;28;20112;-80
2021/07/09 10:09:28;;;;;;;9.38;6.72;;;;;;;53.42;8.25;100506.31;5097115;28;20056;-79
2021/07/09 10:11:55;;;;;;;9.18;6.22;;;;;;;53.53;8.46;100514.63;5067402;28;20444;-80
2021/07/09 10:14:24;;;;;;;8.40;6.35;;;;;;;53.15;8.52;100512.22;5101145;28;20040;-79
2021/07/09 10:16:51;;;;;;;8.80;6.30;;;;;;;52.91;8.36;100512.81;5102655;28;20051;-79
2021/07/09 10:19:38;;;;;;;6.78;5.95;;;;;;;53.49;8.06;100508.81;5083766;28;20031;-81
2021/07/09 10:22:06;;;;;;;8.45;6.18;;;;;;;54.03;7.75;100495.16;5102329;28;20050;-80
2021/07/09 10:24:34;;;;;;;7.43;5.78;;;;;;;54.40;7.65;100506.88;5083284;28;20038;-77
2021/07/09 10:27:01;;;;;;;9.18;6.10;;;;;;;53.50;7.93;100504.06;5098047;28;20515;-78
2021/07/09 10:29:32;;;;;;;9.20;7.25;;;;;;;51.51;8.92;100500.72;5063374;28;20127;-79
2021/07/09 10:31:58;;;;;;;8.52;5.95;;;;;;;49.28;10.05;100489.56;5061602;28;20040;-78
2021/07/09 10:34:32;;;;;;;8.48;5.70;;;;;;;47.90;11.06;100486.94;5095975;28;20134;-80
2021/07/09 10:37:18;;;;;;;8.88;6.10;;;;;;;46.56;11.46;100493.03;5095284;28;20461;-79
2021/07/09 10:39:48;;;;;;;8.13;6.68;;;;;;;45.49;12.34;100489.78;5094850;28;20415;-78
2021/07/09 10:42:17;;;;;;;8.70;6.75;;;;;;;44.19;13.08;100471.03;5095227;28;20032;-78
2021/07/09 10:45:09;;;;;;;7.47;6.22;;;;;;;43.35;13.73;100477.25;5082840;28;20043;-78
2021/07/09 10:47:45;;;;;;;13.18;6.38;;;;;;;42.50;14.47;100484.19;5095465;28;20044;-79
2021/07/09 10:50:17;;;;;;;9.32;6.57;;;;;;;42.10;15.07;100470.41;5095502;28;20116;-77
2021/07/09 10:52:49;;;;;;;9.13;6.45;;;;;;;41.68;15.00;100468.56;5095845;28;20111;-78
2021/07/09 10:55:28;;;;;;;11.65;8.05;;;;;;;41.22;15.59;100460.94;5095773;28;20040;-79
2021/07/09 10:58:06;;;;;;;8.53;6.23;;;;;;;40.74;16.17;100465.16;5079042;28;20044;-79
2021/07/09 11:00:48;;;;;;;10.20;6.28;;;;;;;40.31;16.59;100462.44;5099143;28;20270;-79
2021/07/09 11:03:28;;;;;;;12.80;6.20;;;;;;;40.09;17.00;100461.56;5096624;28;20040;-77
2021/07/09 11:06:02;;;;;;;7.57;6.28;;;;;;;39.83;17.23;100460.19;5078328;28;20036;-79
2021/07/09 11:08:34;;;;;;;9.57;6.05;;;;;;;39.44;17.67;100460.31;5095147;28;20518;-80
2021/07/09 11:11:05;;;;;;;7.63;6.07;;;;;;;39.05;18.11;100461.38;5093368;28;20040;-79
2021/07/09 11:13:46;;;;;;;7.53;6.70;;;;;;;38.79;18.17;100461.75;5096006;28;20046;-77
2021/07/09 11:16:27;;;;;;;7.57;5.97;;;;;;;38.58;18.63;100468.72;5096031;28;20044;-79
2021/07/09 11:19:02;;;;;;;9.55;6.72;;;;;;;38.26;19.03;100462.47;5093920;28;20044;-79
2021/07/09 11:21:31;;;;;;;6.70;5.90;;;;;;;38.04;19.41;100462.28;5094128;28;20131;-78
2021/07/09 11:23:59;;;;;;;9.13;5.72;;;;;;;37.85;18.93;100458.09;5099457;28;20055;-78
2021/07/09 11:26:26;;;;;;;7.82;5.93;;;;;;;37.74;19.52;100453.06;5078228;28;20407;-78